sensor_id;sensor_type;location;lat;lon;timestamp;P1;durP1;ratioP1;P2;durP2;ratioP2
813;SDS011;389;48.710;9.392;2023-02-04T00:02:25;3.93;;;2.53;;
813;SDS011;389;48.710;9.392;2023-02-04T00:04:50;1.90;;;1.70;;
813;SDS011;389;48.710;9.392;2023-02-04T00:07:16;2.33;;;1.93;;
813;SDS011;389;48.710;9.392;2023-02-04T00:09:42;2.80;;;1.90;;
813;SDS011;389;48.710;9.392;2023-02-04T00:12:11;2.97;;;2.20;;
813;SDS011;389;48.710;9.392;2023-02-04T00:14:37;2.80;;;2.10;;
813;SDS011;389;48.710;9.392;2023-02-04T00:17:03;2.83;;;1.70;;
813;SDS011;389;48.710;9.392;2023-02-04T00:19:31;3.57;;;1.50;;
813;SDS011;389;48.710;9.392;2023-02-04T00:21:57;2.60;;;2.30;;
813;SDS011;389;48.710;9.392;2023-02-04T00:24:22;2.43;;;1.93;;
813;SDS011;389;48.710;9.392;2023-02-04T00:26:48;1.47;;;1.37;;
813;SDS011;389;48.710;9.392;2023-02-04T00:29:13;1.40;;;1.30;;
813;SDS011;389;48.710;9.392;2023-02-04T00:31:39;2.13;;;1.90;;
813;SDS011;389;48.710;9.392;2023-02-04T00:34:04;1.80;;;1.40;;
813;SDS011;389;48.710;9.392;2023-02-04T00:36:30;1.40;;;1.30;;
813;SDS011;389;48.710;9.392;2023-02-04T00:38:55;1.80;;;1.70;;
813;SDS011;389;48.710;9.392;2023-02-04T00:41:21;1.50;;;1.40;;
813;SDS011;389;48.710;9.392;2023-02-04T00:43:47;1.40;;;1.30;;
813;SDS011;389;48.710;9.392;2023-02-04T00:46:12;2.57;;;1.80;;
813;SDS011;389;48.710;9.392;2023-02-04T00:48:38;2.97;;;1.33;;
813;SDS011;389;48.710;9.392;2023-02-04T00:51:03;1.80;;;1.20;;
813;SDS011;389;48.710;9.392;2023-02-04T00:53:29;1.67;;;1.53;;
813;SDS011;389;48.710;9.392;2023-02-04T00:55:57;3.67;;;2.10;;
813;SDS011;389;48.710;9.392;2023-02-04T00:58:23;3.67;;;2.10;;
813;SDS011;389;48.710;9.392;2023-02-04T01:00:48;2.83;;;1.80;;
813;SDS011;389;48.710;9.392;2023-02-04T01:03:14;1.97;;;1.50;;
813;SDS011;389;48.710;9.392;2023-02-04T01:05:39;1.63;;;1.53;;
813;SDS011;389;48.710;9.392;2023-02-04T01:08:05;2.50;;;1.50;;
813;SDS011;389;48.710;9.392;2023-02-04T01:10:30;1.50;;;1.40;;
813;SDS011;389;48.710;9.392;2023-02-04T01:12:56;1.67;;;1.57;;
813;SDS011;389;48.710;9.392;2023-02-04T01:15:21;1.80;;;1.47;;
813;SDS011;389;48.710;9.392;2023-02-04T01:17:47;1.40;;;1.27;;
813;SDS011;389;48.710;9.392;2023-02-04T01:20:13;2.17;;;1.50;;
813;SDS011;389;48.710;9.392;2023-02-04T01:22:38;3.50;;;2.03;;
813;SDS011;389;48.710;9.392;2023-02-04T01:25:04;1.87;;;1.27;;
813;SDS011;389;48.710;9.392;2023-02-04T01:27:30;3.23;;;1.80;;
813;SDS011;389;48.710;9.392;2023-02-04T01:29:56;1.63;;;1.47;;
813;SDS011;389;48.710;9.392;2023-02-04T01:32:21;3.50;;;1.83;;
813;SDS011;389;48.710;9.392;2023-02-04T01:34:57;3.03;;;1.73;;
813;SDS011;389;48.710;9.392;2023-02-04T01:37:23;2.13;;;1.80;;
813;SDS011;389;48.710;9.392;2023-02-04T01:39:48;1.63;;;1.30;;
813;SDS011;389;48.710;9.392;2023-02-04T01:42:14;1.80;;;1.53;;
813;SDS011;389;48.710;9.392;2023-02-04T01:44:39;3.07;;;1.70;;
813;SDS011;389;48.710;9.392;2023-02-04T01:47:05;3.10;;;1.63;;
813;SDS011;389;48.710;9.392;2023-02-04T01:49:31;2.30;;;1.50;;
813;SDS011;389;48.710;9.392;2023-02-04T01:51:56;2.27;;;1.47;;
813;SDS011;389;48.710;9.392;2023-02-04T01:54:22;1.57;;;1.30;;
813;SDS011;389;48.710;9.392;2023-02-04T01:56:49;1.50;;;1.37;;
813;SDS011;389;48.710;9.392;2023-02-04T01:59:16;1.57;;;1.47;;
813;SDS011;389;48.710;9.392;2023-02-04T02:04:10;4.30;;;1.83;;
813;SDS011;389;48.710;9.392;2023-02-04T02:06:48;5.13;;;2.33;;
813;SDS011;389;48.710;9.392;2023-02-04T02:09:17;4.00;;;2.30;;
813;SDS011;389;48.710;9.392;2023-02-04T02:11:42;2.30;;;1.70;;
813;SDS011;389;48.710;9.392;2023-02-04T02:14:08;4.10;;;2.60;;
813;SDS011;389;48.710;9.392;2023-02-04T02:16:33;4.00;;;2.20;;
813;SDS011;389;48.710;9.392;2023-02-04T02:18:59;5.60;;;1.90;;
813;SDS011;389;48.710;9.392;2023-02-04T02:21:33;2.70;;;2.07;;
813;SDS011;389;48.710;9.392;2023-02-04T02:27:01;2.87;;;1.87;;
813;SDS011;389;48.710;9.392;2023-02-04T02:29:31;2.20;;;1.33;;
813;SDS011;389;48.710;9.392;2023-02-04T02:31:57;2.30;;;1.53;;
813;SDS011;389;48.710;9.392;2023-02-04T02:34:23;3.00;;;1.90;;
813;SDS011;389;48.710;9.392;2023-02-04T02:36:50;2.13;;;1.63;;
813;SDS011;389;48.710;9.392;2023-02-04T02:39:16;1.33;;;1.17;;
813;SDS011;389;48.710;9.392;2023-02-04T02:41:43;2.27;;;1.47;;
813;SDS011;389;48.710;9.392;2023-02-04T02:44:09;2.83;;;2.03;;
813;SDS011;389;48.710;9.392;2023-02-04T02:46:36;1.37;;;1.27;;
813;SDS011;389;48.710;9.392;2023-02-04T02:49:02;2.00;;;1.60;;
813;SDS011;389;48.710;9.392;2023-02-04T02:51:27;1.60;;;1.27;;
813;SDS011;389;48.710;9.392;2023-02-04T02:53:56;6.80;;;2.00;;
813;SDS011;389;48.710;9.392;2023-02-04T02:56:22;1.87;;;1.40;;
813;SDS011;389;48.710;9.392;2023-02-04T02:58:48;1.47;;;1.23;;
813;SDS011;389;48.710;9.392;2023-02-04T03:01:13;3.37;;;1.30;;
813;SDS011;389;48.710;9.392;2023-02-04T03:03:44;2.90;;;1.43;;
813;SDS011;389;48.710;9.392;2023-02-04T03:06:20;1.60;;;1.07;;
813;SDS011;389;48.710;9.392;2023-02-04T03:08:50;1.80;;;1.47;;
813;SDS011;389;48.710;9.392;2023-02-04T03:11:19;2.60;;;1.27;;
813;SDS011;389;48.710;9.392;2023-02-04T03:13:44;3.20;;;1.40;;
813;SDS011;389;48.710;9.392;2023-02-04T03:16:10;3.67;;;1.50;;
813;SDS011;389;48.710;9.392;2023-02-04T03:18:36;3.73;;;1.70;;
813;SDS011;389;48.710;9.392;2023-02-04T03:21:03;3.30;;;1.90;;
813;SDS011;389;48.710;9.392;2023-02-04T03:23:31;4.03;;;1.33;;
813;SDS011;389;48.710;9.392;2023-02-04T03:26:00;3.80;;;1.37;;
813;SDS011;389;48.710;9.392;2023-02-04T03:28:27;5.83;;;1.40;;
813;SDS011;389;48.710;9.392;2023-02-04T03:30:54;4.10;;;1.60;;
813;SDS011;389;48.710;9.392;2023-02-04T03:33:25;3.70;;;1.53;;
813;SDS011;389;48.710;9.392;2023-02-04T03:35:55;3.80;;;1.87;;
813;SDS011;389;48.710;9.392;2023-02-04T03:38:23;6.83;;;1.90;;
813;SDS011;389;48.710;9.392;2023-02-04T03:40:49;4.80;;;2.00;;
813;SDS011;389;48.710;9.392;2023-02-04T03:43:14;2.17;;;1.97;;
813;SDS011;389;48.710;9.392;2023-02-04T03:45:40;4.13;;;1.67;;
813;SDS011;389;48.710;9.392;2023-02-04T03:48:06;2.20;;;1.60;;
813;SDS011;389;48.710;9.392;2023-02-04T03:50:31;4.00;;;1.87;;
813;SDS011;389;48.710;9.392;2023-02-04T03:52:57;5.20;;;1.53;;
813;SDS011;389;48.710;9.392;2023-02-04T03:55:22;4.10;;;1.80;;
813;SDS011;389;48.710;9.392;2023-02-04T03:57:50;3.40;;;1.60;;
813;SDS011;389;48.710;9.392;2023-02-04T04:00:16;4.27;;;1.43;;
813;SDS011;389;48.710;9.392;2023-02-04T04:02:42;2.03;;;1.50;;
813;SDS011;389;48.710;9.392;2023-02-04T04:05:07;10.37;;;1.60;;
813;SDS011;389;48.710;9.392;2023-02-04T04:07:33;3.13;;;2.10;;
813;SDS011;389;48.710;9.392;2023-02-04T04:09:59;2.30;;;1.50;;
813;SDS011;389;48.710;9.392;2023-02-04T04:12:25;3.90;;;1.70;;
813;SDS011;389;48.710;9.392;2023-02-04T04:14:51;2.10;;;1.47;;
813;SDS011;389;48.710;9.392;2023-02-04T04:17:16;2.10;;;1.47;;
813;SDS011;389;48.710;9.392;2023-02-04T04:19:42;4.63;;;2.20;;
813;SDS011;389;48.710;9.392;2023-02-04T04:22:08;2.30;;;1.20;;
813;SDS011;389;48.710;9.392;2023-02-04T04:24:34;3.70;;;1.87;;
813;SDS011;389;48.710;9.392;2023-02-04T04:27:00;4.63;;;1.60;;
813;SDS011;389;48.710;9.392;2023-02-04T04:29:26;7.10;;;1.63;;
813;SDS011;389;48.710;9.392;2023-02-04T04:31:51;2.77;;;1.33;;
813;SDS011;389;48.710;9.392;2023-02-04T04:34:18;1.63;;;1.30;;
813;SDS011;389;48.710;9.392;2023-02-04T04:36:43;2.00;;;1.80;;
813;SDS011;389;48.710;9.392;2023-02-04T04:39:09;6.47;;;1.73;;
813;SDS011;389;48.710;9.392;2023-02-04T04:41:35;2.40;;;1.50;;
813;SDS011;389;48.710;9.392;2023-02-04T04:44:00;2.93;;;1.30;;
813;SDS011;389;48.710;9.392;2023-02-04T04:46:26;5.60;;;1.60;;
813;SDS011;389;48.710;9.392;2023-02-04T04:48:52;6.30;;;2.00;;
813;SDS011;389;48.710;9.392;2023-02-04T04:51:17;4.33;;;1.80;;
813;SDS011;389;48.710;9.392;2023-02-04T04:53:43;4.83;;;1.87;;
813;SDS011;389;48.710;9.392;2023-02-04T04:56:08;3.03;;;1.87;;
813;SDS011;389;48.710;9.392;2023-02-04T04:58:34;2.70;;;1.60;;
813;SDS011;389;48.710;9.392;2023-02-04T05:00:59;2.23;;;1.57;;
813;SDS011;389;48.710;9.392;2023-02-04T05:03:25;5.40;;;1.87;;
813;SDS011;389;48.710;9.392;2023-02-04T05:05:51;2.60;;;1.63;;
813;SDS011;389;48.710;9.392;2023-02-04T05:08:16;3.83;;;1.80;;
813;SDS011;389;48.710;9.392;2023-02-04T05:10:43;2.20;;;1.40;;
813;SDS011;389;48.710;9.392;2023-02-04T05:13:09;3.23;;;1.83;;
813;SDS011;389;48.710;9.392;2023-02-04T05:15:34;4.67;;;1.97;;
813;SDS011;389;48.710;9.392;2023-02-04T05:18:00;4.57;;;2.10;;
813;SDS011;389;48.710;9.392;2023-02-04T05:20:26;2.43;;;1.57;;
813;SDS011;389;48.710;9.392;2023-02-04T05:22:53;6.10;;;2.77;;
813;SDS011;389;48.710;9.392;2023-02-04T05:25:20;3.93;;;2.23;;
813;SDS011;389;48.710;9.392;2023-02-04T05:27:49;3.03;;;2.20;;
813;SDS011;389;48.710;9.392;2023-02-04T05:30:15;4.87;;;1.93;;
813;SDS011;389;48.710;9.392;2023-02-04T05:32:41;2.90;;;1.80;;
813;SDS011;389;48.710;9.392;2023-02-04T05:35:06;3.30;;;2.13;;
813;SDS011;389;48.710;9.392;2023-02-04T05:37:32;4.43;;;2.40;;
813;SDS011;389;48.710;9.392;2023-02-04T05:39:58;4.90;;;2.40;;
813;SDS011;389;48.710;9.392;2023-02-04T05:42:23;6.20;;;2.20;;
813;SDS011;389;48.710;9.392;2023-02-04T05:44:49;5.97;;;2.33;;
813;SDS011;389;48.710;9.392;2023-02-04T05:47:15;4.90;;;2.20;;
813;SDS011;389;48.710;9.392;2023-02-04T05:49:40;2.67;;;1.73;;
813;SDS011;389;48.710;9.392;2023-02-04T05:52:06;3.17;;;2.10;;
813;SDS011;389;48.710;9.392;2023-02-04T05:54:32;5.93;;;1.90;;
813;SDS011;389;48.710;9.392;2023-02-04T05:56:57;4.00;;;2.57;;
813;SDS011;389;48.710;9.392;2023-02-04T05:59:23;3.70;;;2.33;;
813;SDS011;389;48.710;9.392;2023-02-04T06:01:48;5.83;;;2.27;;
813;SDS011;389;48.710;9.392;2023-02-04T06:04:14;3.27;;;2.20;;
813;SDS011;389;48.710;9.392;2023-02-04T06:06:40;6.50;;;2.90;;
813;SDS011;389;48.710;9.392;2023-02-04T06:09:09;5.47;;;2.40;;
813;SDS011;389;48.710;9.392;2023-02-04T06:11:36;7.00;;;2.33;;
813;SDS011;389;48.710;9.392;2023-02-04T06:14:02;6.63;;;2.67;;
813;SDS011;389;48.710;9.392;2023-02-04T06:16:28;5.67;;;2.60;;
813;SDS011;389;48.710;9.392;2023-02-04T06:18:53;4.63;;;2.60;;
813;SDS011;389;48.710;9.392;2023-02-04T06:21:19;7.37;;;2.67;;
813;SDS011;389;48.710;9.392;2023-02-04T06:23:44;5.40;;;2.70;;
813;SDS011;389;48.710;9.392;2023-02-04T06:26:10;5.73;;;3.47;;
813;SDS011;389;48.710;9.392;2023-02-04T06:28:35;4.60;;;2.70;;
813;SDS011;389;48.710;9.392;2023-02-04T06:31:01;5.27;;;3.07;;
813;SDS011;389;48.710;9.392;2023-02-04T06:33:27;6.30;;;2.77;;
813;SDS011;389;48.710;9.392;2023-02-04T06:35:53;5.13;;;3.50;;
813;SDS011;389;48.710;9.392;2023-02-04T06:38:19;4.23;;;2.77;;
813;SDS011;389;48.710;9.392;2023-02-04T06:40:44;4.97;;;3.27;;
813;SDS011;389;48.710;9.392;2023-02-04T06:43:17;3.97;;;2.63;;
813;SDS011;389;48.710;9.392;2023-02-04T06:45:43;5.20;;;3.00;;
813;SDS011;389;48.710;9.392;2023-02-04T06:48:08;6.07;;;3.20;;
813;SDS011;389;48.710;9.392;2023-02-04T06:50:34;5.93;;;3.57;;
813;SDS011;389;48.710;9.392;2023-02-04T06:53:00;7.67;;;3.20;;
813;SDS011;389;48.710;9.392;2023-02-04T06:55:25;7.43;;;2.83;;
813;SDS011;389;48.710;9.392;2023-02-04T06:57:51;7.37;;;3.47;;
813;SDS011;389;48.710;9.392;2023-02-04T07:00:16;5.50;;;2.97;;
813;SDS011;389;48.710;9.392;2023-02-04T07:02:42;6.40;;;3.50;;
813;SDS011;389;48.710;9.392;2023-02-04T07:05:09;9.27;;;3.50;;
813;SDS011;389;48.710;9.392;2023-02-04T07:07:35;5.20;;;3.00;;
813;SDS011;389;48.710;9.392;2023-02-04T07:10:01;6.53;;;3.70;;
813;SDS011;389;48.710;9.392;2023-02-04T07:12:27;8.70;;;2.97;;
813;SDS011;389;48.710;9.392;2023-02-04T07:14:52;12.37;;;3.40;;
813;SDS011;389;48.710;9.392;2023-02-04T07:17:18;13.03;;;4.83;;
813;SDS011;389;48.710;9.392;2023-02-04T07:19:44;8.47;;;4.43;;
813;SDS011;389;48.710;9.392;2023-02-04T07:22:09;11.37;;;4.17;;
813;SDS011;389;48.710;9.392;2023-02-04T07:24:35;11.80;;;5.13;;
813;SDS011;389;48.710;9.392;2023-02-04T07:27:00;8.40;;;4.67;;
813;SDS011;389;48.710;9.392;2023-02-04T07:29:26;7.20;;;3.00;;
813;SDS011;389;48.710;9.392;2023-02-04T07:31:52;6.93;;;4.20;;
813;SDS011;389;48.710;9.392;2023-02-04T07:34:18;7.03;;;3.17;;
813;SDS011;389;48.710;9.392;2023-02-04T07:36:43;11.47;;;3.43;;
813;SDS011;389;48.710;9.392;2023-02-04T07:39:09;8.90;;;3.63;;
813;SDS011;389;48.710;9.392;2023-02-04T07:41:35;3.33;;;3.03;;
813;SDS011;389;48.710;9.392;2023-02-04T07:44:01;7.03;;;3.27;;
813;SDS011;389;48.710;9.392;2023-02-04T07:46:27;5.17;;;3.47;;
813;SDS011;389;48.710;9.392;2023-02-04T07:48:52;5.17;;;3.40;;
813;SDS011;389;48.710;9.392;2023-02-04T07:51:24;5.17;;;3.10;;
813;SDS011;389;48.710;9.392;2023-02-04T07:53:50;9.27;;;3.73;;
813;SDS011;389;48.710;9.392;2023-02-04T07:56:15;10.40;;;3.93;;
813;SDS011;389;48.710;9.392;2023-02-04T07:58:41;5.30;;;2.77;;
813;SDS011;389;48.710;9.392;2023-02-04T08:01:06;7.63;;;2.80;;
813;SDS011;389;48.710;9.392;2023-02-04T08:03:32;7.17;;;2.43;;
813;SDS011;389;48.710;9.392;2023-02-04T08:05:58;7.73;;;2.47;;
813;SDS011;389;48.710;9.392;2023-02-04T08:08:23;6.70;;;2.80;;
813;SDS011;389;48.710;9.392;2023-02-04T08:10:49;7.03;;;2.73;;
813;SDS011;389;48.710;9.392;2023-02-04T08:13:14;4.73;;;2.70;;
813;SDS011;389;48.710;9.392;2023-02-04T08:15:40;5.73;;;2.87;;
813;SDS011;389;48.710;9.392;2023-02-04T08:18:06;7.70;;;2.97;;
813;SDS011;389;48.710;9.392;2023-02-04T08:20:31;7.30;;;2.57;;
813;SDS011;389;48.710;9.392;2023-02-04T08:22:57;6.57;;;2.87;;
813;SDS011;389;48.710;9.392;2023-02-04T08:25:23;8.40;;;2.57;;
813;SDS011;389;48.710;9.392;2023-02-04T08:27:48;10.63;;;3.07;;
813;SDS011;389;48.710;9.392;2023-02-04T08:30:14;8.37;;;2.97;;
813;SDS011;389;48.710;9.392;2023-02-04T08:32:39;5.57;;;2.67;;
813;SDS011;389;48.710;9.392;2023-02-04T08:35:05;9.60;;;2.80;;
813;SDS011;389;48.710;9.392;2023-02-04T08:37:32;5.10;;;2.63;;
813;SDS011;389;48.710;9.392;2023-02-04T08:39:59;6.80;;;3.07;;
813;SDS011;389;48.710;9.392;2023-02-04T08:42:25;5.30;;;3.03;;
813;SDS011;389;48.710;9.392;2023-02-04T08:44:50;5.67;;;2.50;;
813;SDS011;389;48.710;9.392;2023-02-04T08:47:16;8.60;;;3.03;;
813;SDS011;389;48.710;9.392;2023-02-04T08:49:41;4.53;;;2.60;;
813;SDS011;389;48.710;9.392;2023-02-04T08:52:07;8.70;;;3.10;;
813;SDS011;389;48.710;9.392;2023-02-04T08:54:33;5.30;;;2.43;;
813;SDS011;389;48.710;9.392;2023-02-04T08:56:59;6.70;;;2.53;;
813;SDS011;389;48.710;9.392;2023-02-04T08:59:25;7.30;;;2.33;;
813;SDS011;389;48.710;9.392;2023-02-04T09:01:52;7.77;;;2.97;;
813;SDS011;389;48.710;9.392;2023-02-04T09:04:21;4.47;;;2.30;;
813;SDS011;389;48.710;9.392;2023-02-04T09:06:48;4.67;;;2.40;;
813;SDS011;389;48.710;9.392;2023-02-04T09:09:14;6.97;;;3.67;;
813;SDS011;389;48.710;9.392;2023-02-04T09:11:40;8.70;;;3.97;;
813;SDS011;389;48.710;9.392;2023-02-04T09:14:06;9.37;;;3.97;;
813;SDS011;389;48.710;9.392;2023-02-04T09:16:32;11.27;;;4.37;;
813;SDS011;389;48.710;9.392;2023-02-04T09:18:58;5.63;;;3.60;;
813;SDS011;389;48.710;9.392;2023-02-04T09:21:24;9.20;;;3.00;;
813;SDS011;389;48.710;9.392;2023-02-04T09:23:50;4.73;;;2.33;;
813;SDS011;389;48.710;9.392;2023-02-04T09:26:15;10.50;;;3.00;;
813;SDS011;389;48.710;9.392;2023-02-04T09:28:41;7.00;;;3.27;;
813;SDS011;389;48.710;9.392;2023-02-04T09:31:07;11.47;;;3.70;;
813;SDS011;389;48.710;9.392;2023-02-04T09:33:33;10.33;;;3.00;;
813;SDS011;389;48.710;9.392;2023-02-04T09:36:00;5.10;;;3.27;;
813;SDS011;389;48.710;9.392;2023-02-04T09:38:26;5.40;;;2.43;;
813;SDS011;389;48.710;9.392;2023-02-04T09:40:52;6.53;;;2.73;;
813;SDS011;389;48.710;9.392;2023-02-04T09:43:22;7.30;;;2.30;;
813;SDS011;389;48.710;9.392;2023-02-04T09:45:49;3.50;;;1.73;;
813;SDS011;389;48.710;9.392;2023-02-04T09:48:16;4.53;;;2.10;;
813;SDS011;389;48.710;9.392;2023-02-04T09:50:42;8.77;;;2.20;;
813;SDS011;389;48.710;9.392;2023-02-04T09:53:16;5.40;;;1.90;;
813;SDS011;389;48.710;9.392;2023-02-04T09:55:48;4.33;;;1.80;;
813;SDS011;389;48.710;9.392;2023-02-04T09:58:19;6.23;;;1.70;;
813;SDS011;389;48.710;9.392;2023-02-04T10:00:47;12.63;;;4.43;;
813;SDS011;389;48.710;9.392;2023-02-04T10:03:17;11.87;;;2.23;;
813;SDS011;389;48.710;9.392;2023-02-04T10:05:47;7.27;;;1.90;;
813;SDS011;389;48.710;9.392;2023-02-04T10:08:21;7.73;;;2.40;;
813;SDS011;389;48.710;9.392;2023-02-04T10:10:53;4.63;;;1.90;;
813;SDS011;389;48.710;9.392;2023-02-04T10:13:20;6.17;;;2.07;;
813;SDS011;389;48.710;9.392;2023-02-04T10:15:56;4.43;;;1.77;;
813;SDS011;389;48.710;9.392;2023-02-04T10:18:24;9.27;;;2.00;;
813;SDS011;389;48.710;9.392;2023-02-04T10:21:26;3.53;;;1.60;;
813;SDS011;389;48.710;9.392;2023-02-04T10:23:46;7.33;;;2.27;;
813;SDS011;389;48.710;9.392;2023-02-04T10:26:14;6.07;;;1.80;;
813;SDS011;389;48.710;9.392;2023-02-04T10:28:41;4.07;;;1.80;;
813;SDS011;389;48.710;9.392;2023-02-04T10:31:27;6.40;;;1.80;;
813;SDS011;389;48.710;9.392;2023-02-04T10:34:06;5.03;;;2.33;;
813;SDS011;389;48.710;9.392;2023-02-04T10:36:36;5.67;;;2.50;;
813;SDS011;389;48.710;9.392;2023-02-04T10:39:04;8.30;;;1.57;;
813;SDS011;389;48.710;9.392;2023-02-04T10:41:35;7.70;;;3.00;;
813;SDS011;389;48.710;9.392;2023-02-04T10:44:06;3.97;;;2.07;;
813;SDS011;389;48.710;9.392;2023-02-04T10:46:34;6.90;;;2.20;;
813;SDS011;389;48.710;9.392;2023-02-04T10:49:02;6.97;;;1.70;;
813;SDS011;389;48.710;9.392;2023-02-04T10:51:31;3.20;;;1.50;;
813;SDS011;389;48.710;9.392;2023-02-04T10:53:57;4.23;;;1.87;;
813;SDS011;389;48.710;9.392;2023-02-04T10:56:41;4.47;;;1.70;;
813;SDS011;389;48.710;9.392;2023-02-04T10:59:15;2.50;;;1.40;;
813;SDS011;389;48.710;9.392;2023-02-04T11:01:46;5.47;;;1.97;;
813;SDS011;389;48.710;9.392;2023-02-04T11:04:12;2.97;;;1.03;;
813;SDS011;389;48.710;9.392;2023-02-04T11:06:37;3.10;;;1.30;;
813;SDS011;389;48.710;9.392;2023-02-04T11:09:03;3.50;;;1.67;;
813;SDS011;389;48.710;9.392;2023-02-04T11:11:28;5.43;;;1.70;;
813;SDS011;389;48.710;9.392;2023-02-04T11:16:30;2.83;;;1.50;;
813;SDS011;389;48.710;9.392;2023-02-04T11:22:04;2.93;;;1.33;;
813;SDS011;389;48.710;9.392;2023-02-04T11:24:33;6.37;;;2.10;;
813;SDS011;389;48.710;9.392;2023-02-04T11:27:18;4.03;;;1.37;;
813;SDS011;389;48.710;9.392;2023-02-04T11:29:46;6.60;;;1.50;;
813;SDS011;389;48.710;9.392;2023-02-04T11:37:41;9.57;;;2.50;;
813;SDS011;389;48.710;9.392;2023-02-04T11:40:30;2.40;;;2.17;;
813;SDS011;389;48.710;9.392;2023-02-04T11:43:02;5.30;;;2.20;;
813;SDS011;389;48.710;9.392;2023-02-04T11:45:35;2.10;;;1.57;;
813;SDS011;389;48.710;9.392;2023-02-04T11:48:03;10.60;;;2.10;;
813;SDS011;389;48.710;9.392;2023-02-04T11:50:39;5.50;;;1.83;;
813;SDS011;389;48.710;9.392;2023-02-04T11:53:09;3.17;;;1.40;;
813;SDS011;389;48.710;9.392;2023-02-04T11:55:36;4.63;;;1.63;;
813;SDS011;389;48.710;9.392;2023-02-04T11:58:15;5.63;;;2.40;;
813;SDS011;389;48.710;9.392;2023-02-04T12:00:42;5.17;;;2.00;;
813;SDS011;389;48.710;9.392;2023-02-04T12:03:30;4.37;;;1.73;;
813;SDS011;389;48.710;9.392;2023-02-04T12:06:00;3.00;;;1.83;;
813;SDS011;389;48.710;9.392;2023-02-04T12:08:29;7.73;;;1.90;;
813;SDS011;389;48.710;9.392;2023-02-04T12:11:04;6.60;;;2.00;;
813;SDS011;389;48.710;9.392;2023-02-04T12:13:45;10.87;;;2.40;;
813;SDS011;389;48.710;9.392;2023-02-04T12:16:13;8.03;;;1.77;;
813;SDS011;389;48.710;9.392;2023-02-04T12:18:39;3.90;;;1.77;;
813;SDS011;389;48.710;9.392;2023-02-04T12:21:05;2.70;;;1.77;;
813;SDS011;389;48.710;9.392;2023-02-04T12:23:30;7.27;;;1.77;;
813;SDS011;389;48.710;9.392;2023-02-04T12:25:57;6.20;;;1.93;;
813;SDS011;389;48.710;9.392;2023-02-04T12:28:23;9.53;;;2.40;;
813;SDS011;389;48.710;9.392;2023-02-04T12:30:49;6.27;;;1.90;;
813;SDS011;389;48.710;9.392;2023-02-04T12:33:14;4.73;;;1.90;;
813;SDS011;389;48.710;9.392;2023-02-04T12:35:40;8.00;;;2.63;;
813;SDS011;389;48.710;9.392;2023-02-04T12:38:06;9.57;;;1.77;;
813;SDS011;389;48.710;9.392;2023-02-04T12:40:33;4.13;;;2.13;;
813;SDS011;389;48.710;9.392;2023-02-04T12:42:58;7.50;;;3.23;;
813;SDS011;389;48.710;9.392;2023-02-04T12:45:24;5.73;;;2.50;;
813;SDS011;389;48.710;9.392;2023-02-04T12:47:50;4.13;;;2.00;;
813;SDS011;389;48.710;9.392;2023-02-04T12:50:18;14.13;;;5.53;;
813;SDS011;389;48.710;9.392;2023-02-04T12:52:48;3.97;;;1.73;;
813;SDS011;389;48.710;9.392;2023-02-04T12:55:15;3.70;;;1.90;;
813;SDS011;389;48.710;9.392;2023-02-04T12:57:41;4.33;;;2.13;;
813;SDS011;389;48.710;9.392;2023-02-04T13:00:06;6.07;;;2.20;;
813;SDS011;389;48.710;9.392;2023-02-04T13:02:36;6.47;;;2.00;;
813;SDS011;389;48.710;9.392;2023-02-04T13:05:02;7.20;;;2.33;;
813;SDS011;389;48.710;9.392;2023-02-04T13:07:27;5.83;;;2.13;;
813;SDS011;389;48.710;9.392;2023-02-04T13:09:53;6.83;;;1.83;;
813;SDS011;389;48.710;9.392;2023-02-04T13:12:22;4.80;;;1.80;;
813;SDS011;389;48.710;9.392;2023-02-04T13:14:48;6.30;;;2.40;;
813;SDS011;389;48.710;9.392;2023-02-04T13:17:13;8.10;;;2.43;;
813;SDS011;389;48.710;9.392;2023-02-04T13:19:39;5.83;;;2.57;;
813;SDS011;389;48.710;9.392;2023-02-04T13:22:04;8.83;;;1.70;;
813;SDS011;389;48.710;9.392;2023-02-04T13:24:30;3.33;;;1.50;;
813;SDS011;389;48.710;9.392;2023-02-04T13:26:56;4.43;;;1.40;;
813;SDS011;389;48.710;9.392;2023-02-04T13:29:21;5.40;;;1.60;;
813;SDS011;389;48.710;9.392;2023-02-04T13:31:47;7.70;;;1.43;;
813;SDS011;389;48.710;9.392;2023-02-04T13:34:13;7.83;;;1.93;;
813;SDS011;389;48.710;9.392;2023-02-04T13:36:38;4.67;;;2.07;;
813;SDS011;389;48.710;9.392;2023-02-04T13:39:04;4.43;;;2.20;;
813;SDS011;389;48.710;9.392;2023-02-04T13:41:30;2.20;;;1.60;;
813;SDS011;389;48.710;9.392;2023-02-04T13:43:56;4.67;;;1.50;;
813;SDS011;389;48.710;9.392;2023-02-04T13:46:22;3.83;;;1.70;;
813;SDS011;389;48.710;9.392;2023-02-04T13:48:48;4.70;;;1.70;;
813;SDS011;389;48.710;9.392;2023-02-04T13:51:15;4.80;;;1.50;;
813;SDS011;389;48.710;9.392;2023-02-04T13:53:51;6.13;;;1.40;;
813;SDS011;389;48.710;9.392;2023-02-04T13:56:16;3.43;;;1.87;;
813;SDS011;389;48.710;9.392;2023-02-04T13:58:42;6.13;;;1.87;;
813;SDS011;389;48.710;9.392;2023-02-04T14:01:12;9.33;;;2.47;;
813;SDS011;389;48.710;9.392;2023-02-04T14:03:38;6.77;;;2.00;;
813;SDS011;389;48.710;9.392;2023-02-04T14:06:04;4.27;;;2.13;;
813;SDS011;389;48.710;9.392;2023-02-04T14:08:30;9.43;;;2.40;;
813;SDS011;389;48.710;9.392;2023-02-04T14:10:56;3.50;;;1.87;;
813;SDS011;389;48.710;9.392;2023-02-04T14:13:22;11.90;;;4.17;;
813;SDS011;389;48.710;9.392;2023-02-04T14:15:48;10.97;;;5.43;;
813;SDS011;389;48.710;9.392;2023-02-04T14:18:13;6.47;;;3.40;;
813;SDS011;389;48.710;9.392;2023-02-04T14:20:40;10.20;;;4.00;;
813;SDS011;389;48.710;9.392;2023-02-04T14:23:06;3.27;;;2.00;;
813;SDS011;389;48.710;9.392;2023-02-04T14:25:31;3.10;;;2.03;;
813;SDS011;389;48.710;9.392;2023-02-04T14:27:57;8.33;;;3.07;;
813;SDS011;389;48.710;9.392;2023-02-04T14:30:23;6.33;;;2.30;;
813;SDS011;389;48.710;9.392;2023-02-04T14:32:51;4.13;;;2.03;;
813;SDS011;389;48.710;9.392;2023-02-04T14:35:17;4.20;;;2.10;;
813;SDS011;389;48.710;9.392;2023-02-04T14:37:43;7.53;;;2.27;;
813;SDS011;389;48.710;9.392;2023-02-04T14:40:09;7.13;;;2.20;;
813;SDS011;389;48.710;9.392;2023-02-04T14:42:36;3.77;;;1.80;;
813;SDS011;389;48.710;9.392;2023-02-04T14:45:03;6.50;;;1.83;;
813;SDS011;389;48.710;9.392;2023-02-04T14:47:29;3.97;;;1.73;;
813;SDS011;389;48.710;9.392;2023-02-04T14:49:56;4.73;;;1.60;;
813;SDS011;389;48.710;9.392;2023-02-04T14:52:21;4.93;;;1.70;;
813;SDS011;389;48.710;9.392;2023-02-04T14:54:47;5.27;;;1.90;;
813;SDS011;389;48.710;9.392;2023-02-04T14:57:12;3.30;;;2.00;;
813;SDS011;389;48.710;9.392;2023-02-04T14:59:38;9.03;;;3.60;;
813;SDS011;389;48.710;9.392;2023-02-04T15:02:04;4.57;;;1.50;;
813;SDS011;389;48.710;9.392;2023-02-04T15:04:30;3.13;;;1.93;;
813;SDS011;389;48.710;9.392;2023-02-04T15:06:56;5.10;;;1.93;;
813;SDS011;389;48.710;9.392;2023-02-04T15:09:22;5.40;;;2.20;;
813;SDS011;389;48.710;9.392;2023-02-04T15:11:48;4.73;;;2.00;;
813;SDS011;389;48.710;9.392;2023-02-04T15:14:14;4.80;;;1.70;;
813;SDS011;389;48.710;9.392;2023-02-04T15:16:39;2.07;;;1.30;;
813;SDS011;389;48.710;9.392;2023-02-04T15:19:07;4.80;;;1.50;;
813;SDS011;389;48.710;9.392;2023-02-04T15:21:33;9.03;;;2.20;;
813;SDS011;389;48.710;9.392;2023-02-04T15:23:58;3.50;;;1.70;;
813;SDS011;389;48.710;9.392;2023-02-04T15:26:24;4.20;;;1.40;;
813;SDS011;389;48.710;9.392;2023-02-04T15:28:50;1.50;;;1.37;;
813;SDS011;389;48.710;9.392;2023-02-04T15:31:15;3.87;;;1.50;;
813;SDS011;389;48.710;9.392;2023-02-04T15:33:41;2.40;;;1.07;;
813;SDS011;389;48.710;9.392;2023-02-04T15:36:07;5.37;;;1.80;;
813;SDS011;389;48.710;9.392;2023-02-04T15:38:32;4.33;;;1.57;;
813;SDS011;389;48.710;9.392;2023-02-04T15:40:58;4.77;;;1.80;;
813;SDS011;389;48.710;9.392;2023-02-04T15:43:23;3.73;;;1.70;;
813;SDS011;389;48.710;9.392;2023-02-04T15:45:49;4.00;;;2.20;;
813;SDS011;389;48.710;9.392;2023-02-04T15:48:15;11.17;;;2.00;;
813;SDS011;389;48.710;9.392;2023-02-04T15:50:41;4.57;;;1.60;;
813;SDS011;389;48.710;9.392;2023-02-04T15:53:07;1.90;;;1.60;;
813;SDS011;389;48.710;9.392;2023-02-04T15:55:32;3.03;;;1.67;;
813;SDS011;389;48.710;9.392;2023-02-04T15:57:58;7.20;;;2.57;;
813;SDS011;389;48.710;9.392;2023-02-04T16:00:23;4.53;;;1.70;;